createdAt,value
2023-02-19T00:01:53.510Z,48.21
2023-02-19T00:05:54.812Z,47.55
2023-02-19T00:09:56.188Z,48.13
2023-02-19T00:14:00.057Z,47.61
2023-02-19T00:18:01.357Z,48.28
2023-02-19T00:22:02.763Z,47.91
2023-02-19T00:26:17.745Z,48.07
2023-02-19T00:30:20.207Z,48.71
2023-02-19T00:34:21.529Z,47.68
2023-02-19T00:38:22.938Z,48.00
2023-02-19T00:42:25.733Z,48.06
2023-02-19T00:46:38.719Z,47.75
2023-02-19T00:50:40.057Z,48.08
2023-02-19T00:54:41.453Z,46.85
2023-02-19T00:58:43.075Z,48.39
2023-02-19T01:02:44.423Z,46.78
2023-02-19T01:06:45.781Z,46.77
2023-02-19T01:10:47.754Z,46.95
2023-02-19T01:14:49.085Z,47.48
2023-02-19T01:18:50.819Z,47.88
2023-02-19T01:22:52.468Z,46.49
2023-02-19T01:26:54.338Z,46.46
2023-02-19T01:30:55.657Z,45.99
2023-02-19T01:34:57.041Z,46.75
2023-02-19T01:39:00.653Z,46.05
2023-02-19T01:43:03.594Z,46.46
2023-02-19T01:47:04.953Z,44.80
2023-02-19T01:51:11.262Z,45.33
2023-02-19T01:55:14.139Z,45.36
2023-02-19T01:59:18.236Z,45.49
2023-02-19T02:03:20.685Z,46.27
2023-02-19T02:07:52.445Z,45.24
2023-02-19T02:11:53.860Z,46.69
2023-02-19T02:16:20.429Z,45.99
2023-02-19T02:20:46.537Z,45.41
2023-02-19T02:25:09.530Z,44.79
2023-02-19T02:29:29.266Z,46.32
2023-02-19T02:33:30.588Z,45.07
2023-02-19T02:37:35.606Z,45.83
2023-02-19T02:41:43.855Z,46.08
2023-02-19T02:45:45.268Z,48.04
2023-02-19T02:50:05.085Z,46.24
2023-02-19T02:54:44.531Z,46.19
2023-02-19T02:58:48.418Z,46.16
2023-02-19T03:02:49.966Z,47.41
2023-02-19T03:06:52.463Z,46.80
2023-02-19T03:11:28.329Z,46.22
2023-02-19T03:15:54.298Z,47.06
2023-02-19T03:19:58.556Z,46.81
2023-02-19T03:24:19.063Z,46.79
2023-02-19T03:28:43.797Z,47.07
2023-02-19T03:32:48.536Z,47.20
2023-02-19T03:37:00.433Z,46.38
2023-02-19T03:41:40.397Z,46.05
2023-02-19T03:45:49.129Z,46.20
2023-02-19T03:49:59.857Z,46.59
2023-02-19T03:54:24.077Z,44.90
2023-02-19T03:58:35.276Z,45.33
2023-02-19T04:02:43.637Z,45.32
2023-02-19T04:06:52.491Z,46.84
2023-02-19T04:10:55.178Z,45.48
2023-02-19T04:15:06.432Z,45.77
2023-02-19T04:19:19.712Z,45.36
2023-02-19T04:23:24.889Z,46.31
2023-02-19T04:27:26.562Z,46.47
2023-02-19T04:31:31.292Z,45.75
2023-02-19T04:35:32.743Z,46.46
2023-02-19T04:39:34.175Z,46.72
2023-02-19T04:43:35.462Z,47.11
2023-02-19T04:47:36.761Z,46.80
2023-02-19T04:51:39.332Z,47.69
2023-02-19T04:55:40.693Z,47.39
2023-02-19T04:59:42.091Z,47.59
2023-02-19T05:03:43.969Z,48.11
2023-02-19T05:07:45.301Z,47.94
2023-02-19T05:11:46.648Z,47.71
2023-02-19T05:16:15.953Z,48.22
2023-02-19T05:20:17.378Z,47.77
2023-02-19T05:24:19.040Z,48.34
2023-02-19T05:28:21.830Z,48.11
2023-02-19T05:32:23.176Z,47.72
2023-02-19T05:36:24.549Z,47.25
2023-02-19T05:40:25.879Z,47.98
2023-02-19T05:44:27.362Z,47.44
2023-02-19T05:48:28.662Z,48.69
2023-02-19T05:52:29.950Z,49.14
2023-02-19T05:56:41.974Z,48.23
2023-02-19T06:00:43.297Z,50.21
2023-02-19T06:04:44.600Z,49.53
2023-02-19T06:08:47.667Z,47.64
2023-02-19T06:12:53.329Z,48.32
2023-02-19T06:16:54.659Z,48.02
2023-02-19T06:21:07.860Z,48.84
2023-02-19T06:25:12.443Z,48.81
2023-02-19T06:29:13.759Z,48.54
2023-02-19T06:33:15.093Z,48.90
2023-02-19T06:37:16.662Z,48.37
2023-02-19T06:41:18.854Z,48.15
2023-02-19T06:45:20.451Z,49.15
2023-02-19T06:49:22.110Z,47.73
2023-02-19T06:53:23.582Z,48.13
2023-02-19T06:57:24.930Z,47.11
2023-02-19T07:01:27.145Z,48.01
2023-02-19T07:05:28.436Z,47.55
2023-02-19T07:09:29.813Z,47.86
2023-02-19T07:13:31.304Z,48.58
2023-02-19T07:17:34.382Z,49.21
2023-02-19T07:21:37.965Z,48.49
2023-02-19T07:25:39.605Z,48.68
2023-02-19T07:29:40.950Z,47.99
2023-02-19T07:33:46.276Z,47.51
2023-02-19T07:37:47.655Z,48.15
2023-02-19T07:41:48.911Z,48.03
2023-02-19T07:45:50.636Z,47.68
2023-02-19T07:49:51.980Z,47.32
2023-02-19T07:53:53.458Z,48.23
2023-02-19T07:57:54.896Z,48.29
2023-02-19T08:02:14.986Z,47.71
2023-02-19T08:06:16.356Z,46.82
2023-02-19T08:10:36.413Z,46.21
2023-02-19T08:14:37.734Z,46.93
2023-02-19T08:18:39.334Z,46.55
2023-02-19T08:22:40.782Z,47.01
2023-02-19T08:26:42.142Z,46.52
2023-02-19T08:30:45.699Z,47.03
2023-02-19T08:34:47.031Z,46.24
2023-02-19T08:38:48.394Z,46.78
2023-02-19T08:42:49.967Z,45.99
2023-02-19T08:46:51.236Z,46.21
2023-02-19T08:50:57.368Z,46.37
2023-02-19T08:54:59.388Z,45.89
2023-02-19T08:59:01.004Z,46.34
2023-02-19T09:03:02.389Z,45.60
2023-02-19T09:07:07.578Z,45.60
2023-02-19T09:11:09.180Z,44.59
2023-02-19T09:15:10.779Z,43.93
2023-02-19T09:19:12.081Z,45.36
2023-02-19T09:23:13.414Z,44.53
2023-02-19T09:27:16.969Z,43.68
2023-02-19T09:31:18.381Z,44.05
2023-02-19T09:35:19.718Z,44.47
2023-02-19T09:39:21.605Z,43.96
2023-02-19T09:43:26.365Z,43.49
2023-02-19T09:47:31.327Z,43.86
2023-02-19T09:51:36.527Z,44.37
2023-02-19T09:55:43.414Z,44.38
2023-02-19T09:59:57.540Z,43.31
2023-02-19T10:03:58.868Z,43.55
2023-02-19T10:08:04.536Z,45.22
2023-02-19T10:12:15.994Z,44.42
2023-02-19T10:16:26.788Z,44.20
2023-02-19T10:20:28.218Z,44.98
2023-02-19T10:24:30.722Z,43.63
2023-02-19T10:28:35.911Z,43.40
2023-02-19T10:32:37.647Z,43.12
2023-02-19T10:36:41.914Z,43.30
2023-02-19T10:40:46.896Z,43.89
2023-02-19T10:44:58.721Z,43.59
2023-02-19T10:49:30.187Z,44.73
2023-02-19T10:53:47.524Z,44.39
2023-02-19T10:57:50.353Z,43.68
2023-02-19T11:01:59.406Z,44.70
2023-02-19T11:06:06.741Z,44.38
2023-02-19T11:10:21.400Z,43.70
2023-02-19T11:14:24.729Z,43.45
2023-02-19T11:18:31.791Z,43.08
2023-02-19T11:22:39.937Z,43.08
2023-02-19T11:26:41.384Z,42.58
2023-02-19T11:30:45.058Z,42.26
2023-02-19T11:34:47.751Z,42.14
2023-02-19T11:38:50.240Z,41.00
2023-02-19T11:43:12.764Z,42.07
2023-02-19T11:47:44.824Z,42.90
2023-02-19T11:51:55.220Z,42.94
2023-02-19T11:56:18.263Z,43.10
2023-02-19T12:00:44.490Z,42.87
2023-02-19T12:05:01.000Z,42.11
2023-02-19T12:09:14.673Z,42.97
2023-02-19T12:13:46.476Z,41.77
2023-02-19T12:17:55.619Z,40.18
2023-02-19T12:22:16.051Z,40.76
2023-02-19T12:26:54.992Z,39.76
2023-02-19T12:31:14.258Z,38.85
2023-02-19T12:35:32.697Z,37.16
2023-02-19T12:39:45.672Z,37.37
2023-02-19T12:43:54.421Z,37.22
2023-02-19T12:48:08.059Z,36.49
2023-02-19T12:52:21.926Z,37.40
2023-02-19T12:56:30.828Z,37.08
2023-02-19T13:00:44.289Z,37.03
2023-02-19T13:04:58.041Z,39.12
2023-02-19T13:09:11.801Z,39.35
2023-02-19T13:13:21.782Z,40.41
2023-02-19T13:17:31.880Z,41.91
2023-02-19T13:21:56.434Z,41.97
2023-02-19T13:26:23.550Z,41.73
2023-02-19T13:30:37.483Z,42.49
2023-02-19T13:34:59.635Z,42.02
2023-02-19T13:39:05.641Z,41.19
2023-02-19T13:43:34.841Z,42.92
2023-02-19T13:47:59.144Z,42.26
2023-02-19T13:52:29.757Z,42.15
2023-02-19T13:56:34.182Z,42.30
2023-02-19T14:00:51.773Z,42.80
2023-02-19T14:05:02.336Z,43.03
2023-02-19T14:09:03.837Z,42.62
2023-02-19T14:13:08.399Z,42.88
2023-02-19T14:17:09.644Z,42.50
2023-02-19T14:21:17.436Z,42.26
2023-02-19T14:25:31.055Z,42.22
2023-02-19T14:29:35.296Z,41.88
2023-02-19T14:33:40.172Z,41.77
2023-02-19T14:37:44.958Z,41.63
2023-02-19T14:41:51.264Z,43.35
2023-02-19T14:46:07.999Z,43.04
2023-02-19T14:50:17.478Z,42.92
2023-02-19T14:54:35.014Z,42.85
2023-02-19T14:58:36.927Z,43.52
2023-02-19T15:02:42.999Z,44.31
2023-02-19T15:06:44.450Z,43.20
2023-02-19T15:10:46.833Z,42.83
2023-02-19T15:14:50.751Z,43.17
2023-02-19T15:18:54.273Z,42.53
2023-02-19T15:22:58.424Z,43.78
2023-02-19T15:26:59.873Z,42.49
2023-02-19T15:31:02.066Z,42.60
2023-02-19T15:35:04.644Z,42.40
2023-02-19T15:39:06.081Z,42.31
2023-02-19T15:43:26.323Z,42.43
2023-02-19T15:47:43.787Z,41.71
2023-02-19T15:52:00.048Z,42.46
2023-02-19T15:56:09.672Z,41.49
2023-02-19T16:00:23.719Z,41.41
2023-02-19T16:04:25.132Z,41.24
2023-02-19T16:08:35.392Z,41.91
2023-02-19T16:12:36.755Z,42.21
2023-02-19T16:16:41.059Z,42.47
2023-02-19T16:20:47.578Z,41.91
2023-02-19T16:24:52.710Z,42.32
2023-02-19T16:28:55.205Z,41.10
2023-02-19T16:33:21.557Z,41.81
2023-02-19T16:37:41.177Z,41.74
2023-02-19T16:41:46.522Z,42.99
2023-02-19T16:45:47.910Z,42.45
2023-02-19T16:49:49.283Z,42.63
2023-02-19T16:53:50.727Z,43.22
2023-02-19T16:57:52.423Z,42.44
2023-02-19T17:01:53.790Z,42.42
2023-02-19T17:05:56.313Z,41.50
2023-02-19T17:09:57.812Z,41.98
2023-02-19T17:13:59.257Z,41.32
2023-02-19T17:18:00.641Z,41.83
2023-02-19T17:22:02.051Z,41.97
2023-02-19T17:26:03.479Z,41.96
2023-02-19T17:30:15.487Z,42.47
2023-02-19T17:34:16.969Z,42.08
2023-02-19T17:38:18.368Z,41.65
2023-02-19T17:42:19.995Z,41.99
2023-02-19T17:46:23.574Z,40.90
2023-02-19T17:50:28.680Z,42.49
2023-02-19T17:54:30.167Z,42.34
2023-02-19T17:58:31.552Z,39.95
2023-02-19T18:02:32.930Z,40.00
2023-02-19T18:06:35.900Z,39.46
2023-02-19T18:10:37.394Z,39.62
2023-02-19T18:14:38.731Z,39.71
2023-02-19T18:18:40.329Z,40.17
2023-02-19T18:22:42.444Z,40.15
2023-02-19T18:26:44.580Z,39.59
2023-02-19T18:30:45.965Z,39.30
2023-02-19T18:34:52.547Z,39.82
2023-02-19T18:38:54.021Z,40.13
2023-02-19T18:42:55.657Z,39.33
2023-02-19T18:46:57.092Z,39.43
2023-02-19T18:50:58.502Z,39.55
2023-02-19T18:55:00.518Z,39.17
2023-02-19T18:59:04.275Z,38.93
2023-02-19T19:03:06.419Z,39.35
2023-02-19T19:07:09.266Z,39.09
2023-02-19T19:11:11.067Z,38.90
2023-02-19T19:15:12.732Z,39.00
2023-02-19T19:19:14.737Z,38.31
2023-02-19T19:23:16.130Z,38.86
2023-02-19T19:27:20.716Z,39.17
2023-02-19T19:31:22.982Z,39.51
2023-02-19T19:35:24.339Z,39.67
2023-02-19T19:39:25.714Z,39.53
2023-02-19T19:43:31.350Z,39.01
2023-02-19T19:47:32.772Z,39.30
2023-02-19T19:51:35.135Z,39.85
2023-02-19T19:55:36.733Z,38.94
2023-02-19T19:59:39.226Z,39.14
2023-02-19T20:03:40.616Z,39.40
2023-02-19T20:07:42.253Z,39.06
2023-02-19T20:11:48.878Z,38.74
2023-02-19T20:15:51.333Z,39.16
2023-02-19T20:19:53.454Z,39.77
2023-02-19T20:23:54.798Z,39.96
2023-02-19T20:27:56.250Z,39.84
2023-02-19T20:32:02.457Z,39.11
2023-02-19T20:36:04.237Z,39.04
2023-02-19T20:40:06.998Z,38.93
2023-02-19T20:44:08.296Z,38.38
2023-02-19T20:48:09.634Z,38.73
2023-02-19T20:52:10.928Z,38.77
2023-02-19T20:56:12.829Z,39.29
2023-02-19T21:00:15.596Z,39.23
2023-02-19T21:04:18.311Z,39.09
2023-02-19T21:08:19.614Z,39.16
2023-02-19T21:12:22.433Z,39.33
2023-02-19T21:16:23.736Z,39.42
2023-02-19T21:20:25.099Z,39.86
2023-02-19T21:24:26.432Z,39.64
2023-02-19T21:28:27.800Z,39.32
2023-02-19T21:32:29.181Z,41.01
2023-02-19T21:36:30.876Z,40.70
2023-02-19T21:40:32.874Z,39.69
2023-02-19T21:44:34.268Z,39.56
2023-02-19T21:48:35.568Z,40.23
2023-02-19T21:52:38.463Z,40.63
2023-02-19T21:56:39.845Z,40.63
2023-02-19T22:00:41.216Z,40.76
2023-02-19T22:04:42.479Z,40.64
2023-02-19T22:08:44.569Z,40.81
2023-02-19T22:12:47.095Z,40.92
2023-02-19T22:16:51.788Z,40.82
2023-02-19T22:20:53.206Z,41.03
2023-02-19T22:24:56.745Z,41.06
2023-02-19T22:28:59.442Z,41.41
2023-02-19T22:33:00.869Z,41.25
2023-02-19T22:37:02.189Z,42.18
2023-02-19T22:41:03.553Z,41.33
2023-02-19T22:45:06.081Z,41.19
2023-02-19T22:49:07.576Z,41.46
2023-02-19T22:53:08.891Z,41.57
2023-02-19T22:57:10.209Z,41.46
2023-02-19T23:01:14.057Z,41.72
2023-02-19T23:05:16.182Z,41.51
2023-02-19T23:09:19.318Z,41.74
2023-02-19T23:13:20.713Z,41.81
2023-02-19T23:17:21.988Z,41.48
2023-02-19T23:21:23.424Z,42.03
2023-02-19T23:25:24.787Z,42.18
2023-02-19T23:29:27.873Z,41.82
2023-02-19T23:33:29.284Z,42.89
2023-02-19T23:37:30.655Z,42.69
2023-02-19T23:41:32.022Z,42.56
2023-02-19T23:45:33.440Z,43.04
2023-02-19T23:49:34.828Z,42.90
2023-02-19T23:53:36.141Z,42.90
2023-02-19T23:57:37.492Z,42.95
